BAN13 SCCI-SAWH
Flight info
| Callsign | BAN13 |
|---|---|
| Flight time | 0h 37m |
| Altitude | 25000 |
| Route | ALMIR DCT DABLI DABLI1Q |
| Aircraft | B744/H-SDE3FGHIM1M2RWXY/LB1 |
Departure
| Time | 2026-04-29 16:01 |
|---|---|
| Airport | President Carlos Ibáñez International Airport (SCCI) |
Arrival
| Time | 2026-04-29 16:39 |
|---|---|
| Airport | Ushuaia - Malvinas Argentinas International Airport (SAWH) |
| Time | Latitude | Longitude | Altitude | Speed | Heading |
|---|---|---|---|---|---|
| 2026-04-29 15:45 | -53.00448 | -70.84547 | 162 ft | 0 kts | 219° |
| 2026-04-29 15:54 | -53.00447 | -70.84547 | 162 ft | 0 kts | 219° |
| 2026-04-29 15:54 | -53.00430 | -70.84525 | 162 ft | 4 kts | 203° |
| 2026-04-29 15:54 | -53.00400 | -70.84528 | 162 ft | 4 kts | 141° |
| 2026-04-29 15:55 | -53.00387 | -70.84570 | 162 ft | 3 kts | 94° |
| 2026-04-29 15:55 | -53.00386 | -70.84576 | 162 ft | 0 kts | 94° |
| 2026-04-29 15:56 | -53.00386 | -70.84538 | 162 ft | 6 kts | 86° |
| 2026-04-29 15:56 | -53.00386 | -70.84501 | 162 ft | 5 kts | 93° |
| 2026-04-29 15:57 | -53.00387 | -70.84503 | 162 ft | 9 kts | 94° |
| 2026-04-29 15:57 | -53.00328 | -70.84324 | 162 ft | 31 kts | 50° |
| 2026-04-29 15:57 | -53.00242 | -70.83955 | 162 ft | 40 kts | 89° |
| 2026-04-29 15:57 | -53.00234 | -70.83513 | 162 ft | 21 kts | 88° |
| 2026-04-29 15:58 | -53.00227 | -70.83226 | 162 ft | 27 kts | 88° |
| 2026-04-29 15:58 | -53.00226 | -70.83148 | 162 ft | 9 kts | 88° |
| 2026-04-29 15:58 | -53.00209 | -70.83059 | 162 ft | 9 kts | 30° |
| 2026-04-29 15:58 | -53.00146 | -70.83040 | 162 ft | 10 kts | 358° |
| 2026-04-29 15:59 | -53.00085 | -70.83044 | 163 ft | 5 kts | 339° |
| 2026-04-29 15:59 | -53.00060 | -70.83145 | 163 ft | 19 kts | 272° |
| 2026-04-29 15:59 | -53.00060 | -70.83206 | 163 ft | 0 kts | 270° |
| 2026-04-29 15:59 | -53.00060 | -70.83205 | 181 ft | 0 kts | 270° |
| 2026-04-29 16:00 | -53.00060 | -70.83206 | 164 ft | 1 kts | 270° |
| 2026-04-29 16:00 | -53.00061 | -70.83444 | 160 ft | 49 kts | 268° |
| 2026-04-29 16:00 | -53.00082 | -70.84697 | 162 ft | 107 kts | 270° |
| 2026-04-29 16:01 | -53.00096 | -70.86067 | 236 ft | 129 kts | 270° |
| 2026-04-29 16:01 | -53.00460 | -70.87515 | 654 ft | 140 kts | 229° |
| 2026-04-29 16:01 | -53.01482 | -70.87949 | 1230 ft | 162 kts | 178° |
| 2026-04-29 16:01 | -53.02578 | -70.87009 | 1586 ft | 191 kts | 147° |
| 2026-04-29 16:02 | -53.03324 | -70.86091 | 1940 ft | 203 kts | 147° |
| 2026-04-29 16:02 | -53.04508 | -70.84647 | 2578 ft | 218 kts | 147° |
| 2026-04-29 16:02 | -53.05778 | -70.83212 | 3210 ft | 216 kts | 151° |
| 2026-04-29 16:02 | -53.07179 | -70.81785 | 3901 ft | 242 kts | 153° |
| 2026-04-29 16:03 | -53.08677 | -70.80267 | 4517 ft | 261 kts | 152° |
| 2026-04-29 16:03 | -53.10275 | -70.78618 | 5215 ft | 279 kts | 151° |
| 2026-04-29 16:03 | -53.11937 | -70.76878 | 6216 ft | 285 kts | 151° |
| 2026-04-29 16:03 | -53.13625 | -70.75089 | 7245 ft | 289 kts | 151° |
| 2026-04-29 16:04 | -53.15327 | -70.73276 | 8322 ft | 292 kts | 151° |
| 2026-04-29 16:04 | -53.17049 | -70.71433 | 9354 ft | 282 kts | 151° |
| 2026-04-29 16:04 | -53.18803 | -70.69553 | 10163 ft | 287 kts | 151° |
| 2026-04-29 16:04 | -53.20617 | -70.67613 | 10835 ft | 318 kts | 151° |
| 2026-04-29 16:05 | -53.22537 | -70.65562 | 11459 ft | 335 kts | 151° |
| 2026-04-29 16:05 | -53.24537 | -70.63413 | 12157 ft | 347 kts | 151° |
| 2026-04-29 16:05 | -53.26617 | -70.61177 | 12662 ft | 365 kts | 151° |
| 2026-04-29 16:05 | -53.28788 | -70.58878 | 13216 ft | 367 kts | 151° |
| 2026-04-29 16:06 | -53.31038 | -70.56494 | 13606 ft | 391 kts | 150° |
| 2026-04-29 16:06 | -53.33349 | -70.54015 | 14112 ft | 399 kts | 150° |
| 2026-04-29 16:06 | -53.35720 | -70.51458 | 14466 ft | 411 kts | 150° |
| 2026-04-29 16:06 | -53.38139 | -70.48847 | 15043 ft | 414 kts | 150° |
| 2026-04-29 16:07 | -53.40608 | -70.46170 | 15321 ft | 430 kts | 150° |
| 2026-04-29 16:07 | -53.43146 | -70.43413 | 15700 ft | 437 kts | 149° |
| 2026-04-29 16:07 | -53.45682 | -70.40655 | 16105 ft | 443 kts | 149° |
| 2026-04-29 16:07 | -53.48267 | -70.37837 | 16581 ft | 444 kts | 150° |
| 2026-04-29 16:08 | -53.50850 | -70.35012 | 17289 ft | 443 kts | 150° |
| 2026-04-29 16:08 | -53.53459 | -70.32147 | 17565 ft | 450 kts | 150° |
| 2026-04-29 16:08 | -53.56104 | -70.29248 | 17928 ft | 453 kts | 150° |
| 2026-04-29 16:08 | -53.58766 | -70.26355 | 18354 ft | 463 kts | 150° |
| 2026-04-29 16:09 | -53.61442 | -70.23466 | 18780 ft | 458 kts | 150° |
| 2026-04-29 16:09 | -53.64129 | -70.20553 | 19174 ft | 461 kts | 150° |
| 2026-04-29 16:09 | -53.66828 | -70.17603 | 19592 ft | 463 kts | 150° |
| 2026-04-29 16:09 | -53.69535 | -70.14630 | 19988 ft | 465 kts | 150° |
| 2026-04-29 16:10 | -53.72266 | -70.11622 | 20273 ft | 469 kts | 150° |
| 2026-04-29 16:10 | -53.74981 | -70.08624 | 20289 ft | 459 kts | 150° |
| 2026-04-29 16:10 | -53.77638 | -70.05681 | 20282 ft | 453 kts | 150° |
| 2026-04-29 16:10 | -53.80268 | -70.02767 | 20285 ft | 451 kts | 150° |
| 2026-04-29 16:11 | -53.82887 | -69.99866 | 20287 ft | 449 kts | 150° |
| 2026-04-29 16:11 | -53.85472 | -69.97002 | 20290 ft | 450 kts | 150° |
| 2026-04-29 16:11 | -53.88095 | -69.94094 | 20283 ft | 450 kts | 150° |
| 2026-04-29 16:11 | -53.90714 | -69.91185 | 20281 ft | 450 kts | 150° |
| 2026-04-29 16:12 | -53.93335 | -69.88269 | 20280 ft | 450 kts | 150° |
| 2026-04-29 16:12 | -53.95951 | -69.85355 | 20280 ft | 450 kts | 150° |
| 2026-04-29 16:12 | -53.98495 | -69.82213 | 20257 ft | 457 kts | 141° |
| 2026-04-29 16:12 | -54.00554 | -69.78072 | 20285 ft | 461 kts | 124° |
| 2026-04-29 16:13 | -54.02060 | -69.73239 | 20294 ft | 463 kts | 116° |
| 2026-04-29 16:13 | -54.03339 | -69.68208 | 20283 ft | 463 kts | 114° |
| 2026-04-29 16:13 | -54.04529 | -69.63130 | 20293 ft | 462 kts | 112° |
| 2026-04-29 16:13 | -54.05693 | -69.58034 | 20288 ft | 462 kts | 112° |
| 2026-04-29 16:14 | -54.06859 | -69.52953 | 20254 ft | 462 kts | 113° |
| 2026-04-29 16:14 | -54.08047 | -69.47863 | 20263 ft | 462 kts | 113° |
| 2026-04-29 16:14 | -54.09249 | -69.42792 | 20277 ft | 465 kts | 113° |
| 2026-04-29 16:14 | -54.10453 | -69.37753 | 20259 ft | 465 kts | 114° |
| 2026-04-29 16:15 | -54.11682 | -69.32621 | 20234 ft | 467 kts | 114° |
| 2026-04-29 16:15 | -54.12908 | -69.27523 | 20257 ft | 462 kts | 114° |
| 2026-04-29 16:15 | -54.14129 | -69.22445 | 20256 ft | 464 kts | 114° |
| 2026-04-29 16:15 | -54.15352 | -69.17344 | 20252 ft | 464 kts | 114° |
| 2026-04-29 16:16 | -54.16566 | -69.12255 | 20257 ft | 463 kts | 114° |
| 2026-04-29 16:16 | -54.17773 | -69.07175 | 20254 ft | 461 kts | 114° |
| 2026-04-29 16:16 | -54.18977 | -69.02093 | 20268 ft | 467 kts | 114° |
| 2026-04-29 16:16 | -54.20189 | -68.96964 | 20249 ft | 463 kts | 113° |
| 2026-04-29 16:17 | -54.21388 | -68.91875 | 20252 ft | 462 kts | 113° |
| 2026-04-29 16:17 | -54.22590 | -68.86779 | 20253 ft | 460 kts | 113° |
| 2026-04-29 16:17 | -54.23787 | -68.81687 | 20255 ft | 462 kts | 113° |
| 2026-04-29 16:17 | -54.24990 | -68.76559 | 20246 ft | 468 kts | 113° |
| 2026-04-29 16:18 | -54.26196 | -68.71393 | 20244 ft | 466 kts | 113° |
| 2026-04-29 16:18 | -54.27397 | -68.66251 | 20232 ft | 467 kts | 113° |
| 2026-04-29 16:18 | -54.28598 | -68.61095 | 20235 ft | 464 kts | 113° |
| 2026-04-29 16:18 | -54.29785 | -68.55980 | 20244 ft | 463 kts | 112° |
| 2026-04-29 16:19 | -54.30956 | -68.50920 | 20245 ft | 464 kts | 112° |
| 2026-04-29 16:19 | -54.32120 | -68.45869 | 20232 ft | 441 kts | 112° |
| 2026-04-29 16:19 | -54.33184 | -68.41224 | 20237 ft | 403 kts | 112° |
| 2026-04-29 16:19 | -54.34182 | -68.36844 | 20222 ft | 388 kts | 112° |
| 2026-04-29 16:20 | -54.35150 | -68.32596 | 20178 ft | 382 kts | 112° |
| 2026-04-29 16:20 | -54.36115 | -68.28371 | 19691 ft | 380 kts | 112° |
| 2026-04-29 16:20 | -54.37090 | -68.24099 | 19150 ft | 386 kts | 112° |
| 2026-04-29 16:20 | -54.38073 | -68.19794 | 18690 ft | 385 kts | 112° |
| 2026-04-29 16:21 | -54.39044 | -68.15559 | 18267 ft | 378 kts | 112° |
| 2026-04-29 16:21 | -54.39992 | -68.11406 | 17976 ft | 369 kts | 112° |
| 2026-04-29 16:21 | -54.40916 | -68.07330 | 17673 ft | 363 kts | 112° |
| 2026-04-29 16:21 | -54.41823 | -68.03317 | 17283 ft | 359 kts | 112° |
| 2026-04-29 16:22 | -54.42724 | -67.99315 | 16858 ft | 358 kts | 112° |
| 2026-04-29 16:22 | -54.43616 | -67.95361 | 16522 ft | 353 kts | 112° |
| 2026-04-29 16:22 | -54.44500 | -67.91447 | 16247 ft | 350 kts | 112° |
| 2026-04-29 16:22 | -54.45378 | -67.87547 | 15890 ft | 350 kts | 112° |
| 2026-04-29 16:23 | -54.46239 | -67.83723 | 15509 ft | 347 kts | 111° |
| 2026-04-29 16:23 | -54.47104 | -67.79870 | 15168 ft | 344 kts | 111° |
| 2026-04-29 16:23 | -54.47948 | -67.76032 | 14894 ft | 342 kts | 111° |
| 2026-04-29 16:23 | -54.48845 | -67.72262 | 14540 ft | 339 kts | 121° |
| 2026-04-29 16:24 | -54.50313 | -67.69171 | 14177 ft | 330 kts | 143° |
| 2026-04-29 16:24 | -54.52259 | -67.67237 | 13899 ft | 320 kts | 164° |
| 2026-04-29 16:24 | -54.54408 | -67.66435 | 13614 ft | 315 kts | 176° |
| 2026-04-29 16:24 | -54.56574 | -67.66020 | 13231 ft | 312 kts | 179° |
| 2026-04-29 16:25 | -54.58733 | -67.65734 | 12853 ft | 309 kts | 180° |
| 2026-04-29 16:25 | -54.60851 | -67.65508 | 12559 ft | 301 kts | 181° |
| 2026-04-29 16:25 | -54.62918 | -67.65303 | 12266 ft | 294 kts | 181° |
| 2026-04-29 16:25 | -54.64948 | -67.65104 | 11926 ft | 290 kts | 181° |
| 2026-04-29 16:26 | -54.66954 | -67.64900 | 11640 ft | 285 kts | 180° |
| 2026-04-29 16:26 | -54.68837 | -67.64206 | 11452 ft | 275 kts | 158° |
| 2026-04-29 16:26 | -54.70296 | -67.62076 | 11015 ft | 279 kts | 128° |
| 2026-04-29 16:26 | -54.71071 | -67.59007 | 10588 ft | 280 kts | 102° |
| 2026-04-29 16:27 | -54.71061 | -67.55677 | 10207 ft | 276 kts | 77° |
| 2026-04-29 16:27 | -54.70273 | -67.52759 | 9796 ft | 271 kts | 50° |
| 2026-04-29 16:27 | -54.68846 | -67.50760 | 9457 ft | 259 kts | 22° |
| 2026-04-29 16:27 | -54.67126 | -67.50068 | 9299 ft | 253 kts | 0° |
| 2026-04-29 16:28 | -54.65371 | -67.49949 | 9436 ft | 246 kts | 356° |
| 2026-04-29 16:28 | -54.63678 | -67.50532 | 9720 ft | 247 kts | 325° |
| 2026-04-29 16:28 | -54.62536 | -67.52691 | 9823 ft | 249 kts | 297° |
| 2026-04-29 16:28 | -54.61904 | -67.55392 | 9833 ft | 243 kts | 282° |
| 2026-04-29 16:29 | -54.61791 | -67.58253 | 9831 ft | 239 kts | 263° |
| 2026-04-29 16:29 | -54.62283 | -67.60964 | 9835 ft | 239 kts | 242° |
| 2026-04-29 16:29 | -54.63357 | -67.63159 | 9828 ft | 242 kts | 220° |
| 2026-04-29 16:29 | -54.64884 | -67.64461 | 9823 ft | 254 kts | 198° |
| 2026-04-29 16:30 | -54.66727 | -67.64826 | 9571 ft | 272 kts | 185° |
| 2026-04-29 16:30 | -54.68615 | -67.64783 | 9238 ft | 271 kts | 181° |
| 2026-04-29 16:30 | -54.70494 | -67.64603 | 8924 ft | 271 kts | 179° |
| 2026-04-29 16:30 | -54.72352 | -67.64379 | 8599 ft | 271 kts | 179° |
| 2026-04-29 16:31 | -54.74235 | -67.64132 | 8334 ft | 270 kts | 179° |
| 2026-04-29 16:31 | -54.76055 | -67.63914 | 8311 ft | 254 kts | 181° |
| 2026-04-29 16:31 | -54.77806 | -67.63750 | 8308 ft | 248 kts | 184° |
| 2026-04-29 16:31 | -54.79451 | -67.64344 | 8283 ft | 240 kts | 208° |
| 2026-04-29 16:32 | -54.80768 | -67.65963 | 8285 ft | 231 kts | 229° |
| 2026-04-29 16:32 | -54.81601 | -67.68475 | 7894 ft | 245 kts | 254° |
| 2026-04-29 16:32 | -54.81916 | -67.71378 | 7421 ft | 249 kts | 263° |
| 2026-04-29 16:32 | -54.82095 | -67.74367 | 7184 ft | 252 kts | 265° |
| 2026-04-29 16:33 | -54.82355 | -67.80491 | 6357 ft | 262 kts | 266° |
| 2026-04-29 16:33 | -54.82477 | -67.83623 | 5957 ft | 263 kts | 265° |
| 2026-04-29 16:33 | -54.82606 | -67.86797 | 5543 ft | 264 kts | 265° |
| 2026-04-29 16:34 | -54.82735 | -67.89950 | 5123 ft | 255 kts | 265° |
| 2026-04-29 16:34 | -54.82858 | -67.92938 | 5054 ft | 246 kts | 265° |
| 2026-04-29 16:34 | -54.82974 | -67.95782 | 5089 ft | 227 kts | 265° |
| 2026-04-29 16:34 | -54.83106 | -67.98497 | 5184 ft | 225 kts | 266° |
| 2026-04-29 16:35 | -54.83245 | -68.01214 | 5052 ft | 223 kts | 266° |
| 2026-04-29 16:35 | -54.83375 | -68.03791 | 4812 ft | 209 kts | 270° |
| 2026-04-29 16:35 | -54.83437 | -68.06170 | 4353 ft | 191 kts | 272° |
| 2026-04-29 16:35 | -54.83512 | -68.08339 | 3949 ft | 170 kts | 268° |
| 2026-04-29 16:36 | -54.83542 | -68.10312 | 3254 ft | 161 kts | 273° |
| 2026-04-29 16:36 | -54.83660 | -68.12271 | 2458 ft | 163 kts | 267° |
| 2026-04-29 16:36 | -54.83749 | -68.14208 | 1774 ft | 156 kts | 276° |
| 2026-04-29 16:36 | -54.83788 | -68.16067 | 1572 ft | 157 kts | 266° |
| 2026-04-29 16:37 | -54.83899 | -68.17936 | 1401 ft | 154 kts | 266° |
| 2026-04-29 16:37 | -54.83975 | -68.19799 | 1148 ft | 157 kts | 269° |
| 2026-04-29 16:37 | -54.84041 | -68.21677 | 906 ft | 158 kts | 270° |
| 2026-04-29 16:37 | -54.84071 | -68.22944 | 731 ft | 160 kts | 270° |
| 2026-04-29 16:38 | -54.84157 | -68.25489 | 407 ft | 156 kts | 266° |
| 2026-04-29 16:38 | -54.84245 | -68.27340 | 201 ft | 148 kts | 277° |
| 2026-04-29 16:38 | -54.84294 | -68.29067 | 128 ft | 141 kts | 263° |
| 2026-04-29 16:38 | -54.84390 | -68.30575 | 93 ft | 102 kts | 271° |
| 2026-04-29 16:39 | -54.84400 | -68.31246 | 100 ft | 1 kts | 268° |
| 2026-04-29 16:39 | -54.84400 | -68.31244 | 101 ft | 0 kts | 268° |